Time;durP1;ratioP1;P1;durP2;ratioP2;P2;SDS_P1;SDS_P2;PMS_P1;PMS_P2;Temp;Humidity;BMP_temperature;BMP_pressure;BME280_temperature;BME280_humidity;BME280_pressure;Samples;Min_cycle;Max_cycle;Signal;HPM_P1;HPM_P2
2021/08/12 00:00:15;;;;;;;4.40;3.90;;;22.20;63.00;;;;;;1463438;40;20046;-68
2021/08/12 00:01:37;;;;;;;3.50;3.20;;;22.20;63.00;;;;;;1466434;40;20046;-69
2021/08/12 00:02:58;;;;;;;3.80;3.00;;;22.20;63.00;;;;;;1467272;40;20050;-68
2021/08/12 00:04:19;;;;;;;4.25;3.10;;;22.20;63.00;;;;;;1465535;40;20176;-69
2021/08/12 00:05:40;;;;;;;5.22;3.70;;;22.10;63.00;;;;;;1465717;40;20391;-69
2021/08/12 00:07:01;;;;;;;3.83;3.40;;;22.10;63.10;;;;;;1466638;40;20422;-69
2021/08/12 00:08:22;;;;;;;4.20;3.78;;;22.10;63.20;;;;;;1467913;40;20064;-68
2021/08/12 00:09:43;;;;;;;4.25;3.53;;;22.10;63.20;;;;;;1462784;40;20038;-69
2021/08/12 00:11:05;;;;;;;3.40;3.10;;;22.10;63.30;;;;;;1460827;40;20066;-69
2021/08/12 00:12:26;;;;;;;4.13;3.55;;;22.00;63.30;;;;;;1463470;40;20560;-69
2021/08/12 00:13:47;;;;;;;4.57;3.60;;;22.00;63.30;;;;;;1465525;40;20026;-68
2021/08/12 00:15:08;;;;;;;4.35;3.28;;;22.00;63.30;;;;;;1466405;40;20390;-68
2021/08/12 00:16:30;;;;;;;4.43;3.28;;;22.00;63.30;;;;;;1467330;40;20115;-68
2021/08/12 00:17:52;;;;;;;6.43;3.92;;;21.90;63.30;;;;;;1465297;40;20589;-68
2021/08/12 00:19:13;;;;;;;5.35;3.40;;;21.90;63.30;;;;;;1467178;40;20034;-68
2021/08/12 00:20:34;;;;;;;3.40;3.10;;;21.90;63.40;;;;;;1467275;40;20288;-69
2021/08/12 00:21:54;;;;;;;4.18;3.22;;;21.90;63.50;;;;;;1467596;40;20378;-69
2021/08/12 00:23:15;;;;;;;3.55;3.25;;;21.90;63.60;;;;;;1464823;40;20081;-70
2021/08/12 00:24:36;;;;;;;4.68;3.50;;;21.90;63.60;;;;;;1465894;40;20156;-69
2021/08/12 00:25:57;;;;;;;4.90;3.38;;;21.80;63.60;;;;;;1465259;40;20030;-68
2021/08/12 00:27:18;;;;;;;5.18;3.50;;;21.80;63.60;;;;;;1467268;40;20031;-69
2021/08/12 00:28:39;;;;;;;3.90;3.50;;;21.80;63.60;;;;;;1477169;40;20083;-69
2021/08/12 00:30:00;;;;;;;3.90;3.50;;;21.70;63.60;;;;;;1464483;40;20031;-68
2021/08/12 00:31:21;;;;;;;4.32;3.47;;;21.80;63.80;;;;;;1468066;40;20561;-68
2021/08/12 00:32:41;;;;;;;4.07;3.65;;;21.70;63.80;;;;;;1467029;40;20440;-69
2021/08/12 00:34:02;;;;;;;4.15;3.70;;;21.70;63.90;;;;;;1466277;40;20036;-69
2021/08/12 00:35:23;;;;;;;3.70;3.20;;;21.70;63.90;;;;;;1467568;40;20034;-69
2021/08/12 00:36:44;;;;;;;5.50;3.25;;;21.60;63.90;;;;;;1466445;40;20045;-69
2021/08/12 00:38:05;;;;;;;3.92;3.10;;;21.70;64.00;;;;;;1469479;40;20062;-68
2021/08/12 00:39:26;;;;;;;3.80;3.42;;;21.70;64.00;;;;;;1467345;40;20037;-68
2021/08/12 00:40:47;;;;;;;3.40;3.10;;;21.60;64.00;;;;;;1464919;40;20033;-69
2021/08/12 00:42:08;;;;;;;4.70;3.60;;;21.60;64.10;;;;;;1461519;40;20136;-69
2021/08/12 00:43:29;;;;;;;4.88;3.45;;;21.60;64.10;;;;;;1462202;40;20027;-69
2021/08/12 00:44:50;;;;;;;3.78;2.97;;;21.60;64.10;;;;;;1463616;40;20038;-69
2021/08/12 00:46:11;;;;;;;6.82;4.00;;;21.50;64.10;;;;;;1465224;40;20027;-69
2021/08/12 00:47:32;;;;;;;3.92;3.35;;;21.50;64.10;;;;;;1472330;40;20069;-69
2021/08/12 00:48:52;;;;;;;4.32;3.55;;;21.50;64.30;;;;;;1467896;40;20293;-68
2021/08/12 00:50:14;;;;;;;4.32;3.30;;;21.50;64.40;;;;;;1465553;40;20034;-68
2021/08/12 00:51:36;;;;;;;3.70;3.40;;;21.50;64.50;;;;;;1467446;40;20256;-69
2021/08/12 00:52:57;;;;;;;4.43;3.70;;;21.50;64.60;;;;;;1463315;40;20050;-69
2021/08/12 00:54:19;;;;;;;4.72;3.65;;;21.50;64.60;;;;;;1461929;40;20051;-69
2021/08/12 00:55:44;;;;;;;4.55;3.55;;;21.40;64.70;;;;;;1467298;40;20030;-69
2021/08/12 00:57:06;;;;;;;4.03;3.60;;;21.40;64.90;;;;;;1471986;40;20244;-69
2021/08/12 00:58:27;;;;;;;4.40;3.40;;;21.40;64.70;;;;;;1462944;40;20026;-69
2021/08/12 00:59:48;;;;;;;3.45;3.15;;;21.40;64.70;;;;;;1457714;40;20028;-68
2021/08/12 01:01:09;;;;;;;3.72;3.38;;;21.40;64.80;;;;;;1462257;40;20031;-69
2021/08/12 01:02:30;;;;;;;3.67;3.28;;;21.40;64.80;;;;;;1465941;40;20394;-68
2021/08/12 01:03:51;;;;;;;6.47;4.00;;;21.30;64.90;;;;;;1467265;40;20572;-69
2021/08/12 01:05:12;;;;;;;5.35;4.20;;;21.30;65.00;;;;;;1466507;40;20033;-68
2021/08/12 01:07:00;;;;;;;4.55;3.65;;;21.30;65.10;;;;;;1469043;40;20123;-68
2021/08/12 01:08:57;;;;;;;3.95;3.45;;;21.30;65.50;;;;;;1467389;40;20281;-69
2021/08/12 01:10:29;;;;;;;3.60;3.13;;;21.30;65.60;;;;;;1465850;40;20083;-68
2021/08/12 01:11:57;;;;;;;3.97;3.58;;;21.30;64.90;;;;;;1465364;40;20722;-69
2021/08/12 01:13:40;;;;;;;5.43;3.78;;;21.30;65.10;;;;;;1466352;40;20027;-69
2021/08/12 01:15:07;;;;;;;6.68;3.92;;;21.30;65.40;;;;;;1467313;40;20038;-69
2021/08/12 01:16:31;;;;;;;5.88;3.92;;;21.20;65.00;;;;;;1478470;40;20039;-69
2021/08/12 01:17:59;;;;;;;5.18;3.88;;;21.20;65.00;;;;;;1460587;40;20035;-68
2021/08/12 01:19:39;;;;;;;4.93;3.97;;;21.20;65.20;;;;;;1461684;40;20046;-69
2021/08/12 01:21:09;;;;;;;4.68;3.67;;;21.20;65.00;;;;;;1464371;40;20039;-68
2021/08/12 01:22:35;;;;;;;5.43;4.10;;;21.20;64.90;;;;;;1463248;40;20039;-68
2021/08/12 01:24:04;;;;;;;4.85;3.85;;;21.20;65.10;;;;;;1466175;40;20030;-68
2021/08/12 01:25:30;;;;;;;4.10;3.42;;;21.10;65.30;;;;;;1466620;40;20041;-68
2021/08/12 01:26:55;;;;;;;3.97;3.50;;;21.10;65.20;;;;;;1467550;40;20414;-68
2021/08/12 01:28:20;;;;;;;4.60;3.80;;;21.10;65.30;;;;;;1482507;40;20065;-68
2021/08/12 01:30:01;;;;;;;4.68;4.03;;;21.10;65.40;;;;;;1466610;40;20606;-68
2021/08/12 01:31:22;;;;;;;4.13;3.72;;;21.10;65.80;;;;;;1467461;40;20411;-69
2021/08/12 01:32:43;;;;;;;4.72;3.97;;;21.00;65.10;;;;;;1464430;40;20046;-68
2021/08/12 01:34:15;;;;;;;6.85;4.20;;;21.00;65.20;;;;;;1467485;40;20107;-69
2021/08/12 01:35:38;;;;;;;6.40;4.05;;;21.00;65.70;;;;;;1476173;40;20481;-69
2021/08/12 01:37:00;;;;;;;5.10;4.38;;;21.00;65.40;;;;;;1483421;40;20033;-68
2021/08/12 01:38:27;;;;;;;6.00;4.47;;;21.00;65.60;;;;;;1477172;40;20072;-69
2021/08/12 01:39:50;;;;;;;5.53;4.45;;;21.00;65.90;;;;;;1465923;40;20030;-68
2021/08/12 01:45:54;;;;;;;4.32;3.92;;;20.90;66.00;;;;;;1463014;40;20416;-68
2021/08/12 01:47:15;;;;;;;5.03;3.63;;;20.90;65.60;;;;;;1461873;40;20082;-68
2021/08/12 01:48:36;;;;;;;5.25;4.18;;;20.90;65.20;;;;;;1465729;40;20074;-68
2021/08/12 01:50:01;;;;;;;5.30;4.10;;;20.90;65.30;;;;;;1461811;40;20026;-68
2021/08/12 01:51:25;;;;;;;5.22;3.97;;;20.90;65.60;;;;;;1463851;40;20041;-68
2021/08/12 01:52:51;;;;;;;4.25;3.85;;;20.90;65.80;;;;;;1470830;40;20037;-68
2021/08/12 01:54:12;;;;;;;4.07;3.67;;;20.80;65.90;;;;;;1468992;40;20037;-68
2021/08/12 01:55:33;;;;;;;5.85;3.92;;;20.80;65.70;;;;;;1467905;40;20026;-68
2021/08/12 01:56:55;;;;;;;4.00;3.55;;;20.80;65.80;;;;;;1466080;40;20042;-68
2021/08/12 01:58:18;;;;;;;4.53;3.72;;;20.80;66.00;;;;;;1466172;40;20088;-69
2021/08/12 01:59:40;;;;;;;5.55;3.67;;;20.80;66.10;;;;;;1465947;40;20078;-69
2021/08/12 02:01:01;;;;;;;6.15;4.20;;;20.80;66.10;;;;;;1464373;40;20026;-68
2021/08/12 02:02:23;;;;;;;5.85;4.57;;;20.70;66.20;;;;;;1458999;40;20136;-68
2021/08/12 02:03:45;;;;;;;4.85;4.35;;;20.70;66.20;;;;;;1463815;40;20034;-69
2021/08/12 02:05:10;;;;;;;4.75;3.83;;;20.70;66.20;;;;;;1465485;40;20401;-68
2021/08/12 02:06:36;;;;;;;5.10;4.57;;;20.70;66.20;;;;;;1467320;40;20034;-69
2021/08/12 02:07:58;;;;;;;5.35;4.85;;;20.70;66.50;;;;;;1466280;40;20034;-68
2021/08/12 02:09:18;;;;;;;5.25;4.70;;;20.70;66.30;;;;;;1467311;40;20132;-68
2021/08/12 02:10:42;;;;;;;5.82;4.60;;;20.70;66.50;;;;;;1467564;40;20065;-69
2021/08/12 02:12:04;;;;;;;5.32;4.75;;;20.70;66.70;;;;;;1460122;40;20023;-68
2021/08/12 02:13:26;;;;;;;6.25;4.70;;;20.70;66.70;;;;;;1463266;40;20062;-68
2021/08/12 02:14:47;;;;;;;5.95;4.65;;;20.70;66.80;;;;;;1465846;40;20027;-68
2021/08/12 02:16:09;;;;;;;4.97;4.38;;;20.60;66.80;;;;;;1466776;40;20270;-68
2021/08/12 02:17:30;;;;;;;7.13;5.03;;;20.70;66.90;;;;;;1468484;40;20407;-68
2021/08/12 02:18:51;;;;;;;6.32;5.25;;;20.70;66.90;;;;;;1466880;40;20112;-68
2021/08/12 02:20:15;;;;;;;4.43;3.97;;;20.70;67.00;;;;;;1467154;40;20028;-68
2021/08/12 02:21:48;;;;;;;6.22;4.97;;;20.70;67.10;;;;;;1468897;40;20027;-68
2021/08/12 02:23:11;;;;;;;6.40;4.78;;;20.70;67.60;;;;;;1464730;40;20553;-68
2021/08/12 02:24:42;;;;;;;6.65;4.95;;;20.70;67.10;;;;;;1463896;40;20034;-68
2021/08/12 02:26:09;;;;;;;5.97;4.40;;;20.70;67.40;;;;;;1457393;40;20015;-68
2021/08/12 02:27:31;;;;;;;5.78;5.07;;;20.70;67.30;;;;;;1467332;40;20064;-68
2021/08/12 02:28:53;;;;;;;7.50;5.38;;;20.70;67.10;;;;;;1471536;40;20581;-69
2021/08/12 02:30:14;;;;;;;5.30;4.80;;;20.60;67.30;;;;;;1462239;40;20418;-68
2021/08/12 02:31:35;;;;;;;5.88;4.85;;;20.70;67.50;;;;;;1459417;40;20027;-68
2021/08/12 02:32:57;;;;;;;6.28;4.47;;;20.70;67.40;;;;;;1464424;40;20037;-68
2021/08/12 02:34:18;;;;;;;7.07;4.72;;;20.60;67.50;;;;;;1465270;40;20157;-69
2021/08/12 02:35:40;;;;;;;5.93;4.68;;;20.70;67.70;;;;;;1465628;40;20422;-68
2021/08/12 02:37:04;;;;;;;6.20;5.00;;;20.60;67.70;;;;;;1464179;40;20034;-68
2021/08/12 02:38:26;;;;;;;6.07;4.65;;;20.70;68.00;;;;;;1457918;40;20563;-68
2021/08/12 02:39:49;;;;;;;6.30;5.07;;;20.60;67.80;;;;;;1464301;40;20088;-68
2021/08/12 02:41:14;;;;;;;6.45;4.22;;;20.60;67.90;;;;;;1467779;40;20026;-68
2021/08/12 02:42:38;;;;;;;5.57;4.22;;;20.70;67.90;;;;;;1480479;40;20094;-68
2021/08/12 02:43:59;;;;;;;6.00;4.93;;;20.70;67.80;;;;;;1475469;40;20064;-67
2021/08/12 02:45:21;;;;;;;4.85;4.25;;;20.70;67.80;;;;;;1467429;40;20030;-68
2021/08/12 02:46:43;;;;;;;6.40;4.25;;;20.70;67.90;;;;;;1463258;40;20031;-68
2021/08/12 02:48:08;;;;;;;5.35;4.82;;;20.70;68.00;;;;;;1462943;40;20030;-68
2021/08/12 02:49:31;;;;;;;9.63;4.80;;;20.70;68.10;;;;;;1466280;40;20035;-68
2021/08/12 02:50:53;;;;;;;7.03;5.10;;;20.70;68.00;;;;;;1465606;40;20062;-68
2021/08/12 02:52:16;;;;;;;5.43;4.90;;;20.70;68.00;;;;;;1463445;40;20026;-68
2021/08/12 02:53:37;;;;;;;6.18;4.57;;;20.70;68.00;;;;;;1464658;40;20074;-68
2021/08/12 02:54:59;;;;;;;6.22;4.97;;;20.70;68.00;;;;;;1466749;40;20018;-69
2021/08/12 02:56:21;;;;;;;6.03;4.75;;;20.70;68.10;;;;;;1467063;40;20030;-68
2021/08/12 02:57:42;;;;;;;7.07;5.05;;;20.70;68.00;;;;;;1466433;40;20046;-69
2021/08/12 02:59:04;;;;;;;8.35;6.00;;;20.70;68.00;;;;;;1463679;40;20033;-68
2021/08/12 03:00:25;;;;;;;6.40;5.35;;;20.60;68.00;;;;;;1467558;40;20030;-68
2021/08/12 03:01:48;;;;;;;6.93;5.90;;;20.70;68.00;;;;;;1466726;40;20026;-68
2021/08/12 03:03:10;;;;;;;7.80;6.03;;;20.70;68.20;;;;;;1464257;40;20034;-68
2021/08/12 03:04:30;;;;;;;7.95;6.18;;;20.60;68.40;;;;;;1464592;40;20030;-68
2021/08/12 03:05:53;;;;;;;7.70;5.40;;;20.60;68.20;;;;;;1465118;40;20067;-68
2021/08/12 03:07:16;;;;;;;6.68;5.28;;;20.60;68.30;;;;;;1466390;40;20034;-68
2021/08/12 03:08:38;;;;;;;7.65;5.78;;;20.60;68.20;;;;;;1464651;40;20027;-68
2021/08/12 03:10:00;;;;;;;7.25;5.75;;;20.60;68.30;;;;;;1465362;40;20029;-68
2021/08/12 03:11:21;;;;;;;7.85;6.10;;;20.60;68.50;;;;;;1467634;40;20081;-68
2021/08/12 03:12:43;;;;;;;8.50;6.30;;;20.50;68.40;;;;;;1466388;40;20030;-68
2021/08/12 03:14:04;;;;;;;9.00;6.57;;;20.60;68.60;;;;;;1467010;40;20038;-68
2021/08/12 03:15:27;;;;;;;7.68;5.70;;;20.60;68.60;;;;;;1466752;40;20375;-68
2021/08/12 03:16:48;;;;;;;7.90;5.95;;;20.50;68.50;;;;;;1464998;40;20055;-68
2021/08/12 03:18:09;;;;;;;7.50;6.00;;;20.60;68.60;;;;;;1464899;40;20027;-68
2021/08/12 03:19:30;;;;;;;6.78;5.60;;;20.60;68.60;;;;;;1467558;40;20103;-68
2021/08/12 03:20:51;;;;;;;7.07;5.97;;;20.50;68.50;;;;;;1466818;40;20062;-68
2021/08/12 03:22:13;;;;;;;9.05;6.57;;;20.50;68.50;;;;;;1466977;40;20367;-68
2021/08/12 03:23:34;;;;;;;7.28;5.50;;;20.50;68.70;;;;;;1459600;40;20089;-69
2021/08/12 03:24:55;;;;;;;9.00;6.63;;;20.50;68.70;;;;;;1461408;40;20053;-69
2021/08/12 03:26:17;;;;;;;8.27;6.45;;;20.50;68.80;;;;;;1462189;40;20058;-68
2021/08/12 03:27:38;;;;;;;11.40;7.03;;;20.50;69.00;;;;;;1467931;40;20041;-68
2021/08/12 03:28:59;;;;;;;9.50;6.97;;;20.50;69.00;;;;;;1464388;40;20019;-68
2021/08/12 03:30:20;;;;;;;9.40;6.22;;;20.50;69.10;;;;;;1467065;40;20037;-68
2021/08/12 03:31:40;;;;;;;5.60;4.97;;;20.50;69.10;;;;;;1461006;40;20568;-68
2021/08/12 03:33:01;;;;;;;8.18;6.35;;;20.50;69.00;;;;;;1465014;40;20030;-68
2021/08/12 03:34:22;;;;;;;8.35;6.38;;;20.50;69.00;;;;;;1467501;40;20066;-68
2021/08/12 03:35:43;;;;;;;8.73;7.10;;;20.50;69.00;;;;;;1467070;40;20046;-68
2021/08/12 03:37:05;;;;;;;7.40;5.82;;;20.50;69.00;;;;;;1465873;40;20112;-68
2021/08/12 03:38:27;;;;;;;7.53;6.03;;;20.50;69.00;;;;;;1464369;40;20045;-68
2021/08/12 03:39:48;;;;;;;7.88;5.72;;;20.40;68.90;;;;;;1464992;40;20023;-68
2021/08/12 03:41:09;;;;;;;7.18;5.15;;;20.50;69.00;;;;;;1467630;40;20045;-68
2021/08/12 03:42:30;;;;;;;6.60;5.90;;;20.40;68.90;;;;;;1466215;40;20054;-68
2021/08/12 03:43:51;;;;;;;6.07;5.47;;;20.40;68.90;;;;;;1467047;40;20146;-69
2021/08/12 03:45:11;;;;;;;8.02;6.13;;;20.40;68.90;;;;;;1466169;40;20067;-68
2021/08/12 03:46:32;;;;;;;6.45;5.15;;;20.40;68.90;;;;;;1465402;40;20031;-68
2021/08/12 03:47:53;;;;;;;6.47;5.25;;;20.40;68.90;;;;;;1467825;40;20033;-68
2021/08/12 03:49:14;;;;;;;8.95;5.57;;;20.40;69.00;;;;;;1464438;40;20071;-68
2021/08/12 03:50:35;;;;;;;7.88;5.38;;;20.40;68.90;;;;;;1466576;40;20295;-68
2021/08/12 03:51:56;;;;;;;5.63;4.82;;;20.40;69.00;;;;;;1464740;40;20033;-68
2021/08/12 03:53:18;;;;;;;6.53;5.00;;;20.40;69.00;;;;;;1466131;40;20078;-68
2021/08/12 03:54:39;;;;;;;6.70;4.90;;;20.40;69.00;;;;;;1477462;40;20514;-68
2021/08/12 03:56:00;;;;;;;6.45;5.40;;;20.40;69.00;;;;;;1467160;40;20351;-68
2021/08/12 03:57:21;;;;;;;6.35;5.38;;;20.30;68.90;;;;;;1464226;40;20438;-69
2021/08/12 03:58:42;;;;;;;7.82;5.15;;;20.40;69.00;;;;;;1468093;40;20339;-68
2021/08/12 04:00:06;;;;;;;7.90;5.22;;;20.40;69.00;;;;;;1465304;40;20033;-68
2021/08/12 04:01:29;;;;;;;6.68;5.55;;;20.30;69.00;;;;;;1462493;40;20023;-68
2021/08/12 04:02:50;;;;;;;7.50;5.85;;;20.30;68.90;;;;;;1464370;40;20316;-68
2021/08/12 04:04:11;;;;;;;8.45;6.20;;;20.30;68.80;;;;;;1462664;40;19938;-69
2021/08/12 04:05:32;;;;;;;8.15;6.78;;;20.30;68.80;;;;;;1477189;40;20037;-68
2021/08/12 04:06:53;;;;;;;9.10;7.07;;;20.30;69.00;;;;;;1460977;40;20026;-68
2021/08/12 04:08:14;;;;;;;11.57;7.05;;;20.30;69.00;;;;;;1463941;40;20026;-68
2021/08/12 04:09:35;;;;;;;9.63;6.70;;;20.30;69.10;;;;;;1468078;40;20278;-68
2021/08/12 04:10:56;;;;;;;7.15;6.10;;;20.30;69.10;;;;;;1469095;40;20022;-68
2021/08/12 04:12:17;;;;;;;9.15;6.70;;;20.20;69.00;;;;;;1474745;40;20044;-68
2021/08/12 04:13:38;;;;;;;10.07;7.10;;;20.20;69.00;;;;;;1467548;40;20042;-68
2021/08/12 04:14:59;;;;;;;11.30;7.40;;;20.20;69.10;;;;;;1465840;40;20160;-68
2021/08/12 04:18:26;;;;;;;;;;;20.20;69.30;;;;;;1083381;54;20436;-68
2021/08/12 04:19:47;;;;;;;9.10;5.65;;;20.30;69.30;;;;;;1083555;38;20286;-68
2021/08/12 04:21:08;;;;;;;6.68;5.55;;;20.30;68.20;;;;;;1083130;38;20764;-68
2021/08/12 04:22:28;;;;;;;9.48;7.45;;;20.20;68.40;;;;;;1083180;54;20045;-68
2021/08/12 04:23:49;;;;;;;8.43;6.97;;;20.20;68.60;;;;;;1083227;54;20034;-68
2021/08/12 04:25:12;;;;;;;7.28;6.47;;;20.20;68.80;;;;;;1083439;54;20030;-68
2021/08/12 04:26:33;;;;;;;9.75;7.65;;;20.20;68.90;;;;;;1083118;54;20041;-68
2021/08/12 04:27:53;;;;;;;10.45;7.55;;;20.20;69.00;;;;;;1083162;54;20042;-68
2021/08/12 04:29:14;;;;;;;11.52;8.52;;;20.20;69.20;;;;;;1082970;54;20095;-68
2021/08/12 04:30:35;;;;;;;10.00;7.97;;;20.10;69.30;;;;;;1082902;54;20034;-67
2021/08/12 04:31:56;;;;;;;10.30;7.97;;;20.10;69.40;;;;;;1083028;54;20034;-68
2021/08/12 04:33:17;;;;;;;12.82;8.20;;;20.10;70.20;;;;;;1083719;38;20839;-68
2021/08/12 04:34:38;;;;;;;9.48;7.97;;;20.10;69.60;;;;;;1084297;31;20438;-68
2021/08/12 04:35:59;;;;;;;11.10;8.32;;;20.10;69.70;;;;;;1083337;38;20754;-69
2021/08/12 04:37:20;;;;;;;11.13;7.95;;;20.10;69.70;;;;;;1083204;54;20034;-69
2021/08/12 04:38:41;;;;;;;11.52;8.02;;;20.00;69.70;;;;;;1083343;54;20073;-69
2021/08/12 04:40:03;;;;;;;11.30;7.80;;;20.00;69.80;;;;;;1084025;31;20469;-69
2021/08/12 04:41:24;;;;;;;11.70;8.40;;;20.00;69.90;;;;;;1083798;38;20373;-67
2021/08/12 04:42:48;;;;;;;12.15;7.60;;;20.10;69.90;;;;;;1083142;54;20044;-67
2021/08/12 04:44:09;;;;;;;11.35;7.93;;;20.10;70.00;;;;;;1083378;54;20055;-68
2021/08/12 04:45:30;;;;;;;9.48;7.72;;;20.00;69.90;;;;;;1083431;54;20034;-67
2021/08/12 04:46:51;;;;;;;11.05;7.63;;;20.00;70.00;;;;;;1083018;54;20125;-67
2021/08/12 04:48:15;;;;;;;10.07;7.28;;;20.00;70.00;;;;;;1083409;54;20038;-67
2021/08/12 04:49:35;;;;;;;9.48;7.95;;;20.00;70.00;;;;;;1083203;54;20038;-67
2021/08/12 04:50:56;;;;;;;10.25;8.30;;;20.00;70.00;;;;;;1083336;54;20034;-67
2021/08/12 04:52:17;;;;;;;11.18;8.27;;;20.00;70.10;;;;;;1083580;54;20034;-67
2021/08/12 04:53:38;;;;;;;11.18;8.35;;;20.00;70.20;;;;;;1082707;54;20034;-67
2021/08/12 04:54:59;;;;;;;9.85;8.00;;;20.00;70.30;;;;;;1082864;54;20034;-67
2021/08/12 04:56:20;;;;;;;11.48;8.23;;;20.00;70.40;;;;;;1083024;54;20049;-67
2021/08/12 04:57:41;;;;;;;10.48;8.38;;;20.00;70.40;;;;;;1082884;54;20137;-67
2021/08/12 04:59:02;;;;;;;10.52;7.47;;;20.00;70.50;;;;;;1083457;54;20030;-67
2021/08/12 05:00:23;;;;;;;11.10;8.48;;;20.00;70.40;;;;;;1082752;54;20045;-67
2021/08/12 05:01:44;;;;;;;11.90;8.20;;;20.00;70.50;;;;;;1080132;54;20030;-67
2021/08/12 05:03:05;;;;;;;9.27;7.05;;;20.00;70.60;;;;;;1080969;54;20161;-67
2021/08/12 05:04:26;;;;;;;16.33;7.70;;;20.00;70.70;;;;;;1082290;54;20073;-67
2021/08/12 05:05:46;;;;;;;10.38;8.43;;;20.00;70.70;;;;;;1082129;47;20524;-69
2021/08/12 05:07:07;;;;;;;12.13;9.00;;;20.00;70.90;;;;;;1082734;54;20034;-68
2021/08/12 05:08:28;;;;;;;11.15;8.45;;;20.00;71.00;;;;;;1082468;54;20042;-69
2021/08/12 05:09:49;;;;;;;11.32;8.88;;;20.00;71.00;;;;;;1082352;54;20050;-68
2021/08/12 05:11:11;;;;;;;9.98;8.07;;;20.00;71.10;;;;;;1081919;54;20050;-69
2021/08/12 05:12:32;;;;;;;9.65;8.40;;;20.00;71.00;;;;;;1082575;54;20053;-69
2021/08/12 05:13:53;;;;;;;9.45;8.25;;;20.10;71.20;;;;;;1082405;54;20493;-68
2021/08/12 05:15:14;;;;;;;9.88;7.63;;;20.00;71.20;;;;;;1082468;54;20041;-68
2021/08/12 05:16:34;;;;;;;14.93;8.43;;;20.00;71.20;;;;;;1082136;54;20033;-68
2021/08/12 05:17:55;;;;;;;11.23;8.35;;;20.10;71.40;;;;;;1082476;38;20388;-68
2021/08/12 05:19:16;;;;;;;10.60;8.48;;;20.10;71.40;;;;;;1082522;54;20774;-68
2021/08/12 05:20:37;;;;;;;9.90;8.10;;;20.10;71.40;;;;;;1082701;54;20034;-69
2021/08/12 05:21:58;;;;;;;12.13;8.50;;;20.10;71.40;;;;;;1082316;54;20046;-68
2021/08/12 05:23:19;;;;;;;8.45;7.18;;;20.10;71.50;;;;;;1081973;54;20057;-68
2021/08/12 05:24:40;;;;;;;9.18;7.53;;;20.10;71.50;;;;;;1082065;54;20544;-68
2021/08/12 05:26:01;;;;;;;9.85;8.15;;;20.20;71.70;;;;;;1082284;54;20034;-68
2021/08/12 05:27:22;;;;;;;12.20;8.77;;;20.20;71.80;;;;;;1082704;54;20030;-68
2021/08/12 05:28:43;;;;;;;12.95;9.27;;;20.20;71.80;;;;;;1082545;54;20034;-68
2021/08/12 05:30:04;;;;;;;11.68;9.48;;;20.20;71.90;;;;;;1080861;54;20057;-68
2021/08/12 05:31:25;;;;;;;12.02;9.70;;;20.20;72.00;;;;;;1080877;54;20034;-68
2021/08/12 05:32:47;;;;;;;10.57;8.85;;;20.20;72.00;;;;;;1080717;54;20035;-68
2021/08/12 05:34:11;;;;;;;11.05;8.60;;;20.30;72.10;;;;;;1080898;54;20046;-68
2021/08/12 05:35:32;;;;;;;11.95;9.60;;;20.30;72.20;;;;;;1081265;54;20034;-68
2021/08/12 05:36:53;;;;;;;9.77;7.88;;;20.30;72.00;;;;;;1081383;54;20060;-69
2021/08/12 05:38:14;;;;;;;10.35;8.45;;;20.40;72.10;;;;;;1080617;54;20038;-68
2021/08/12 05:39:35;;;;;;;8.40;7.57;;;20.40;72.10;;;;;;1081011;54;20046;-69
2021/08/12 05:40:57;;;;;;;11.50;9.05;;;20.40;72.10;;;;;;1080741;54;20043;-69
2021/08/12 05:42:18;;;;;;;10.68;8.35;;;20.40;72.20;;;;;;1081511;54;20022;-69
2021/08/12 05:43:39;;;;;;;10.57;8.20;;;20.40;72.30;;;;;;1080566;54;20030;-69
2021/08/12 05:45:00;;;;;;;11.82;8.57;;;20.50;72.40;;;;;;1081058;54;20081;-69
2021/08/12 05:46:21;;;;;;;9.85;8.20;;;20.50;72.50;;;;;;1080708;54;20034;-69
2021/08/12 05:47:42;;;;;;;10.60;8.35;;;20.40;72.50;;;;;;1080628;47;20086;-68
2021/08/12 05:49:03;;;;;;;12.73;8.65;;;20.50;72.50;;;;;;1080871;54;20034;-68
2021/08/12 05:50:23;;;;;;;11.00;8.85;;;20.50;72.50;;;;;;1081378;39;20133;-68
2021/08/12 05:51:44;;;;;;;12.90;8.95;;;20.50;72.40;;;;;;1080916;39;20476;-68
2021/08/12 05:53:05;;;;;;;10.95;8.77;;;20.60;72.40;;;;;;1080637;54;20142;-68
2021/08/12 05:54:26;;;;;;;10.45;8.98;;;20.50;72.30;;;;;;1081116;54;20073;-69
2021/08/12 05:55:48;;;;;;;11.27;9.15;;;20.60;72.30;;;;;;1080907;54;20042;-69
2021/08/12 05:57:09;;;;;;;11.60;8.45;;;20.60;72.40;;;;;;1080909;54;20548;-69
2021/08/12 05:58:33;;;;;;;8.93;7.85;;;20.60;72.30;;;;;;1080891;54;20062;-68
2021/08/12 05:59:54;;;;;;;11.38;8.32;;;20.70;72.40;;;;;;1081175;54;20485;-68
2021/08/12 06:01:15;;;;;;;9.70;7.72;;;20.70;72.50;;;;;;1080851;54;20125;-69
2021/08/12 06:02:35;;;;;;;16.45;8.70;;;20.70;72.60;;;;;;1081042;54;20502;-69
2021/08/12 06:03:56;;;;;;;11.32;8.25;;;20.70;72.70;;;;;;1081017;54;20050;-68
2021/08/12 06:05:17;;;;;;;8.23;6.70;;;20.80;72.70;;;;;;1081465;54;20069;-69
2021/08/12 06:06:39;;;;;;;11.15;7.50;;;20.80;72.60;;;;;;1080707;54;20546;-69
2021/08/12 06:08:04;;;;;;;7.93;6.53;;;20.80;72.60;;;;;;1080543;54;20038;-69
2021/08/12 06:09:25;;;;;;;9.63;7.80;;;20.90;72.60;;;;;;1081140;54;20103;-68
2021/08/12 06:10:46;;;;;;;9.88;8.45;;;20.90;72.50;;;;;;1081447;54;20030;-69
2021/08/12 06:12:07;;;;;;;10.13;7.45;;;20.90;72.40;;;;;;1081499;54;20077;-67
2021/08/12 06:13:28;;;;;;;8.52;7.63;;;21.00;72.30;;;;;;1080674;54;20050;-67
2021/08/12 06:14:49;;;;;;;9.32;7.47;;;21.00;72.30;;;;;;1080502;54;20982;-67
2021/08/12 06:16:11;;;;;;;11.43;8.25;;;21.00;72.30;;;;;;1081405;39;20826;-67
2021/08/12 06:17:37;;;;;;;8.23;6.97;;;21.10;72.40;;;;;;1081086;54;20052;-68
2021/08/12 06:18:58;;;;;;;10.50;8.40;;;21.10;72.40;;;;;;1081126;39;20414;-68
2021/08/12 06:20:19;;;;;;;10.05;8.52;;;21.20;72.40;;;;;;1080897;54;20050;-67
2021/08/12 06:21:40;;;;;;;9.75;7.90;;;21.20;72.30;;;;;;1080832;54;20041;-67
2021/08/12 06:23:01;;;;;;;9.63;7.90;;;21.30;73.00;;;;;;1080824;54;20145;-67
2021/08/12 06:24:22;;;;;;;12.07;8.63;;;21.30;72.30;;;;;;1080523;54;20588;-67
2021/08/12 06:25:43;;;;;;;10.57;9.10;;;21.30;72.10;;;;;;1080666;54;20495;-68
2021/08/12 06:27:04;;;;;;;9.95;8.38;;;21.40;72.10;;;;;;1080754;54;20038;-68
2021/08/12 06:28:25;;;;;;;11.13;8.25;;;21.40;72.00;;;;;;1081165;54;20065;-67
2021/08/12 06:29:46;;;;;;;9.40;7.80;;;21.50;71.80;;;;;;1081004;54;20038;-67
2021/08/12 06:31:07;;;;;;;9.50;7.78;;;21.50;71.70;;;;;;1080901;54;20065;-67
2021/08/12 06:32:28;;;;;;;9.95;8.18;;;21.50;71.60;;;;;;1080866;54;20038;-67
2021/08/12 06:33:49;;;;;;;10.88;8.13;;;21.60;71.70;;;;;;1080772;54;20043;-67
2021/08/12 06:35:12;;;;;;;8.88;7.95;;;21.60;71.50;;;;;;1081321;54;20663;-67
2021/08/12 06:36:33;;;;;;;9.57;7.80;;;21.60;71.50;;;;;;1080832;54;20137;-67
2021/08/12 06:37:54;;;;;;;8.60;7.00;;;21.70;71.60;;;;;;1080675;54;20034;-67
2021/08/12 06:39:15;;;;;;;9.63;8.13;;;21.70;71.60;;;;;;1080939;54;20165;-67
2021/08/12 06:40:36;;;;;;;9.38;6.80;;;21.80;71.50;;;;;;1080938;54;20034;-67
2021/08/12 06:41:57;;;;;;;10.05;7.18;;;21.90;71.40;;;;;;1080770;54;20040;-67
2021/08/12 06:43:18;;;;;;;9.18;6.95;;;21.90;71.40;;;;;;1081018;39;20385;-67
2021/08/12 06:44:39;;;;;;;9.02;7.32;;;22.00;71.30;;;;;;1081245;39;20686;-67
2021/08/12 06:46:00;;;;;;;7.32;6.45;;;22.00;71.20;;;;;;1081478;39;20701;-67
2021/08/12 06:47:21;;;;;;;9.73;6.88;;;22.00;71.00;;;;;;1081512;39;20361;-67
2021/08/12 06:48:41;;;;;;;9.05;7.43;;;22.10;71.00;;;;;;1080425;54;20046;-67
2021/08/12 06:50:07;;;;;;;8.80;7.22;;;22.10;70.80;;;;;;1080941;54;20030;-68
2021/08/12 06:51:27;;;;;;;7.78;6.97;;;22.20;70.50;;;;;;1080871;54;20058;-70
2021/08/12 06:52:48;;;;;;;10.82;7.60;;;22.20;70.50;;;;;;1080681;54;20619;-67
2021/08/12 06:54:09;;;;;;;8.77;7.30;;;22.20;70.40;;;;;;1080664;54;20038;-67
2021/08/12 06:55:30;;;;;;;7.80;6.38;;;22.30;70.40;;;;;;1080632;54;20105;-67
2021/08/12 06:56:51;;;;;;;8.07;6.53;;;22.30;70.40;;;;;;1080700;54;20090;-67
2021/08/12 06:58:12;;;;;;;8.00;6.68;;;22.30;70.30;;;;;;1080935;54;20029;-67
2021/08/12 06:59:33;;;;;;;8.18;6.75;;;22.30;70.20;;;;;;1080909;54;20022;-67
2021/08/12 07:00:54;;;;;;;8.13;6.72;;;22.40;70.10;;;;;;1080909;54;20037;-67
2021/08/12 07:02:15;;;;;;;7.68;6.07;;;22.40;69.90;;;;;;1080739;54;20498;-67
2021/08/12 07:03:35;;;;;;;6.53;5.90;;;22.40;69.80;;;;;;1080648;54;20045;-68
2021/08/12 07:04:56;;;;;;;7.60;6.30;;;22.50;69.70;;;;;;1081135;54;20031;-67
2021/08/12 07:06:17;;;;;;;9.80;6.47;;;22.50;69.70;;;;;;1080113;54;20030;-67
2021/08/12 07:07:38;;;;;;;9.23;6.40;;;22.50;69.60;;;;;;1080592;54;20047;-67
2021/08/12 07:08:59;;;;;;;7.63;5.88;;;22.60;69.60;;;;;;1080924;54;20034;-67
2021/08/12 07:10:20;;;;;;;8.02;6.57;;;22.60;69.40;;;;;;1081292;39;20488;-67
2021/08/12 07:11:41;;;;;;;7.57;6.20;;;22.60;69.20;;;;;;1080172;54;21006;-67
2021/08/12 07:13:02;;;;;;;7.57;6.75;;;22.70;68.90;;;;;;1080288;54;20039;-67